.
WxDataArchive / Data Records for 2009-02-04
2009-02-03 February 2009 2009-02-05

Data Records for Wednesday, 04 February 2009

Time	Temp	Chill	HIndex	Humid	Dewpt	 Wind 	HiWind	WindDir	Rain 	Barom 
-----	----	-----	------	-----	-----	------	------	-------	-----	----- 
00:00	15.6	15.6	15.6	77	9.7	0	1	292	0.00	30.222 
00:05	15.4	15.4	15.4	77	9.5	0	2	292	0.00	30.220 
00:10	15.2	15.2	15.2	77	9.3	0	0	---	0.00	30.222 
00:15	15.1	15.1	15.1	77	9.2	0	1	315	0.00	30.222 
00:20	14.9	14.9	14.9	78	9.3	0	0	---	0.00	30.222 
00:25	14.8	14.8	14.8	78	9.2	0	0	---	0.00	30.221 
00:30	14.4	14.4	14.4	78	8.8	0	0	---	0.00	30.223 
00:35	14.3	14.3	14.3	78	8.7	0	0	---	0.00	30.224 
00:40	14.1	14.1	14.1	79	8.8	0	0	---	0.00	30.225 
00:45	14.3	14.3	14.3	80	9.3	0	1	315	0.00	30.226 
00:50	14.4	14.4	14.4	81	9.7	0	2	315	0.00	30.227 
00:55	14.6	14.6	14.6	81	9.9	0	1	315	0.00	30.227 
01:00	14.8	14.8	14.8	81	10.0	0	3	315	0.00	30.230 
01:05	14.9	14.9	14.9	81	10.1	1	2	338	0.00	30.229 
01:10	14.9	14.9	14.9	81	10.1	0	2	338	0.00	30.230 
01:15	14.9	14.9	14.9	80	9.9	1	3	338	0.00	30.235 
01:20	14.9	14.9	14.9	80	9.9	0	4	338	0.00	30.237 
01:25	14.8	14.8	14.8	80	9.8	1	4	338	0.00	30.236 
01:30	14.6	14.6	14.6	79	9.3	1	3	315	0.00	30.238 
01:35	14.3	14.3	14.3	79	9.0	0	3	315	0.00	30.239 
01:40	14.0	14.0	14.0	77	8.1	1	4	338	0.00	30.241 
01:45	13.6	13.6	13.6	76	7.5	0	3	22	0.00	30.245 
01:50	13.1	13.1	13.1	75	6.7	1	3	315	0.00	30.251 
01:55	12.8	12.8	12.8	75	6.4	1	4	315	0.00	30.255 
02:00	12.6	12.6	12.6	74	5.9	1	3	315	0.00	30.257 
02:05	12.3	12.3	12.3	74	5.6	0	3	0	0.00	30.262 
02:10	11.9	11.9	11.9	74	5.2	1	2	338	0.00	30.265 
02:15	11.6	11.6	11.6	74	4.9	1	2	338	0.00	30.269 
02:20	11.2	11.2	11.2	74	4.6	0	2	0	0.00	30.272 
02:25	11.1	11.1	11.1	74	4.5	1	4	315	0.00	30.274 
02:30	10.7	10.7	10.7	74	4.1	1	2	338	0.00	30.276 
02:35	10.5	10.5	10.5	74	3.9	1	3	292	0.00	30.279 
02:40	10.4	10.4	10.4	74	3.8	1	3	315	0.00	30.285 
02:45	10.2	10.2	10.2	74	3.6	1	3	338	0.00	30.286 
02:50	10.0	10.0	10.0	74	3.4	1	3	338	0.00	30.287 
02:55	9.9	9.9	9.9	74	3.3	1	4	338	0.00	30.289 
03:00	9.7	9.7	9.7	74	3.1	0	2	338	0.00	30.291 
03:05	9.5	9.5	9.5	74	2.9	1	4	270	0.00	30.293 
03:10	9.5	9.5	9.5	74	2.9	1	3	270	0.00	30.294 
03:15	9.3	9.3	9.3	73	2.4	0	2	315	0.00	30.295 
03:20	9.2	9.2	9.2	73	2.3	1	3	338	0.00	30.294 
03:25	9.2	9.2	9.2	73	2.3	1	4	315	0.00	30.295 
03:30	9.0	9.0	9.0	73	2.1	1	4	292	0.00	30.296 
03:35	8.8	8.8	8.8	73	1.9	1	2	338	0.00	30.299 
03:40	8.6	8.6	8.6	73	1.8	1	3	338	0.00	30.300 
03:45	8.6	8.6	8.6	72	1.5	1	2	338	0.00	30.303 
03:50	8.4	8.4	8.4	72	1.3	0	2	338	0.00	30.306 
03:55	8.3	8.3	8.3	71	0.9	0	2	0	0.00	30.309 
04:00	8.1	8.1	8.1	71	0.7	1	3	338	0.00	30.310 
04:05	8.1	8.1	8.1	71	0.7	0	2	0	0.00	30.308 
04:10	7.9	7.9	7.9	71	0.5	1	2	292	0.00	30.309 
04:15	7.7	7.7	7.7	71	0.3	0	2	338	0.00	30.310 
04:20	7.7	7.7	7.7	71	0.3	0	3	315	0.00	30.309 
04:25	7.4	7.4	7.4	71	0.0	0	1	338	0.00	30.310 
04:30	7.4	7.4	7.4	71	0.0	0	2	315	0.00	30.313 
04:35	7.2	7.2	7.2	72	0.1	1	3	315	0.00	30.313 
04:40	7.2	7.2	7.2	71	-0.2	1	2	0	0.00	30.316 
04:45	7.2	7.2	7.2	71	-0.2	0	2	0	0.00	30.318 
04:50	7.0	7.0	7.0	71	-0.4	0	2	0	0.00	30.316 
04:55	7.0	7.0	7.0	71	-0.4	0	2	22	0.00	30.316 
05:00	6.9	6.9	6.9	71	-0.5	0	1	338	0.00	30.323 
05:05	6.9	6.9	6.9	71	-0.5	0	2	270	0.00	30.327 
05:10	6.7	6.7	6.7	71	-0.7	0	2	270	0.00	30.328 
05:15	6.7	6.7	6.7	71	-0.7	0	2	270	0.00	30.330 
05:20	6.5	6.5	6.5	71	-0.9	0	1	270	0.00	30.332 
05:25	6.5	6.5	6.5	71	-0.9	0	2	292	0.00	30.336 
05:30	6.5	6.5	6.5	71	-0.9	0	2	338	0.00	30.341 
05:35	6.7	6.7	6.7	71	-0.7	0	2	338	0.00	30.343 
05:40	6.7	6.7	6.7	70	-1.0	0	3	338	0.00	30.343 
05:45	6.7	6.7	6.7	70	-1.0	0	3	292	0.00	30.343 
05:50	6.5	6.5	6.5	70	-1.2	0	1	0	0.00	30.343 
05:55	6.5	6.5	6.5	69	-1.5	0	2	0	0.00	30.346 
06:00	6.3	6.3	6.3	69	-1.7	0	2	0	0.00	30.346 
06:05	6.1	6.1	6.1	69	-1.9	0	2	292	0.00	30.351 
06:10	6.0	6.0	6.0	69	-1.9	0	1	292	0.00	30.352 
06:15	6.0	6.0	6.0	70	-1.6	0	2	270	0.00	30.356 
06:20	5.8	5.8	5.8	70	-1.8	0	1	270	0.00	30.357 
06:25	5.8	5.8	5.8	70	-1.8	0	2	270	0.00	30.361 
06:30	5.8	5.8	5.8	70	-1.8	0	2	270	0.00	30.361 
06:35	5.8	5.8	5.8	70	-1.8	0	1	270	0.00	30.362 
06:40	5.6	5.6	5.6	70	-2.0	0	1	270	0.00	30.363 
06:45	5.6	5.6	5.6	70	-2.0	0	1	270	0.00	30.367 
06:50	5.4	5.4	5.4	70	-2.2	0	1	270	0.00	30.371 
06:55	5.2	5.2	5.2	71	-2.1	0	2	270	0.00	30.374 
07:00	5.0	5.0	5.0	71	-2.3	0	2	270	0.00	30.377 
07:05	5.0	5.0	5.0	71	-2.3	0	1	270	0.00	30.381 
07:10	4.8	4.8	4.8	71	-2.5	0	2	270	0.00	30.384 
07:15	4.8	4.8	4.8	71	-2.5	0	2	270	0.00	30.389 
07:20	4.8	4.8	4.8	71	-2.5	0	4	270	0.00	30.390 
07:25	4.7	4.7	4.7	71	-2.6	0	2	270	0.00	30.392 
07:30	4.7	4.7	4.7	72	-2.3	0	1	270	0.00	30.395 
07:35	4.5	4.5	4.5	72	-2.5	0	1	270	0.00	30.396 
07:40	4.3	4.3	4.3	72	-2.7	0	1	270	0.00	30.396 
07:45	4.3	4.3	4.3	72	-2.7	0	1	270	0.00	30.397 
07:50	4.1	4.1	4.1	72	-2.9	0	0	---	0.00	30.397 
07:55	3.9	3.9	3.9	72	-3.1	0	0	---	0.00	30.398 
08:00	3.9	3.9	3.9	73	-2.8	0	1	270	0.00	30.402 
08:05	3.7	3.7	3.7	73	-3.0	0	0	---	0.00	30.404 
08:10	3.7	3.7	3.7	73	-3.0	0	0	---	0.00	30.406 
08:15	3.5	3.5	3.5	73	-3.2	0	0	---	0.00	30.410 
08:20	3.5	3.5	3.5	74	-2.9	0	1	270	0.00	30.412 
08:25	3.9	3.9	3.9	74	-2.5	0	1	270	0.00	30.413 
08:30	4.3	4.3	4.3	74	-2.1	0	1	270	0.00	30.415 
08:35	4.5	4.5	4.5	74	-1.9	0	1	270	0.00	30.419 
08:40	5.0	5.0	5.0	73	-1.7	0	1	270	0.00	30.420 
08:45	5.4	5.4	5.4	73	-1.3	0	1	270	0.00	30.423 
08:50	5.8	5.8	5.8	72	-1.2	0	1	270	0.00	30.424 
08:55	6.1	6.1	6.1	71	-1.3	0	2	270	0.00	30.425 
09:00	6.5	6.5	6.5	71	-0.9	0	2	270	0.00	30.424 
09:05	6.9	6.9	6.9	70	-0.8	0	2	270	0.00	30.426 
09:10	7.0	7.0	7.0	70	-0.7	0	2	270	0.00	30.428 
09:15	7.4	7.4	7.4	69	-0.6	0	2	315	0.00	30.431 
09:20	7.6	7.6	7.6	69	-0.4	0	2	315	0.00	30.431 
09:25	7.7	7.7	7.7	68	-0.6	0	2	315	0.00	30.431 
09:30	7.9	7.9	7.9	68	-0.4	0	2	315	0.00	30.437 
09:35	8.1	8.1	8.1	68	-0.2	1	4	270	0.00	30.439 
09:40	8.4	8.4	8.4	68	0.0	1	3	270	0.00	30.442 
09:45	8.8	8.8	8.8	67	0.1	0	3	315	0.00	30.445 
09:50	9.0	9.0	9.0	67	0.3	0	3	315	0.00	30.446 
09:55	9.3	9.3	9.3	66	0.3	1	3	338	0.00	30.450 
10:00	9.5	9.5	9.5	66	0.5	1	2	338	0.00	30.449 
10:05	9.9	9.9	9.9	66	0.8	1	3	270	0.00	30.453 
10:10	10.2	10.2	10.2	65	0.8	0	2	270	0.00	30.455 
10:15	10.7	10.7	10.7	65	1.3	1	3	338	0.00	30.452 
10:20	11.1	11.1	11.1	65	1.7	0	2	0	0.00	30.453 
10:25	10.9	10.9	10.9	64	1.1	1	2	292	0.00	30.454 
10:30	11.2	11.2	11.2	64	1.4	1	3	292	0.00	30.456 
10:35	11.2	11.2	11.2	63	1.1	1	3	0	0.00	30.459 
10:40	11.4	11.4	11.4	64	1.6	1	3	338	0.00	30.462 
10:45	11.6	11.6	11.6	63	1.5	1	3	270	0.00	30.462 
10:50	11.7	11.7	11.7	63	1.6	1	3	270	0.00	30.463 
10:55	11.6	11.6	11.6	63	1.5	1	3	338	0.00	30.465 
11:00	11.7	11.7	11.7	63	1.6	1	3	292	0.00	30.466 
11:05	11.7	11.7	11.7	63	1.6	1	3	270	0.00	30.468 
11:10	11.9	11.9	11.9	64	2.1	1	5	315	0.00	30.468 
11:15	12.1	12.1	12.1	63	2.0	1	5	270	0.00	30.469 
11:20	12.4	12.4	12.4	62	1.9	1	3	270	0.00	30.468 
11:25	12.3	12.3	12.3	63	2.1	2	6	292	0.00	30.469 
11:30	12.4	12.4	12.4	62	1.9	1	3	0	0.00	30.469 
11:35	12.4	12.4	12.4	62	1.9	1	4	315	0.00	30.468 
11:40	12.8	12.8	12.8	63	2.6	1	4	315	0.00	30.469 
11:45	12.9	12.9	12.9	63	2.7	1	4	292	0.00	30.469 
11:50	13.3	13.3	13.3	62	2.7	1	2	315	0.00	30.469 
11:55	13.6	13.6	13.6	62	3.0	1	5	270	0.00	30.466 
12:00	13.8	13.8	13.8	61	2.9	2	5	248	0.00	30.466 
12:05	14.0	14.0	14.0	61	3.1	1	3	292	0.00	30.466 
12:10	14.3	14.3	14.3	61	3.3	1	2	248	0.00	30.466 
12:15	14.4	14.4	14.4	60	3.1	1	3	315	0.00	30.466 
12:20	14.6	14.6	14.6	59	2.9	1	3	338	0.00	30.463 
12:25	14.8	14.8	14.8	59	3.1	1	4	270	0.00	30.464 
12:30	14.8	14.8	14.8	58	2.7	1	4	338	0.00	30.463 
12:35	14.9	14.9	14.9	58	2.8	1	3	338	0.00	30.460 
12:40	15.2	15.2	15.2	58	3.1	1	3	338	0.00	30.461 
12:45	15.6	15.6	15.6	58	3.5	2	5	270	0.00	30.460 
12:50	15.9	15.9	15.9	57	3.4	1	4	315	0.00	30.459 
12:55	15.9	15.9	15.9	56	3.0	2	4	270	0.00	30.456 
13:00	15.9	15.9	15.9	56	3.0	1	4	292	0.00	30.456 
13:05	16.2	16.2	16.2	56	3.3	2	5	270	0.00	30.459 
13:10	16.4	16.4	16.4	55	3.1	1	5	315	0.00	30.458 
13:15	16.2	16.2	16.2	55	2.9	1	3	338	0.00	30.457 
13:20	16.7	16.7	16.7	54	3.0	2	5	270	0.00	30.455 
13:25	16.5	16.5	16.5	52	2.0	3	7	315	0.00	30.454 
13:30	16.7	16.7	16.7	53	2.6	2	7	315	0.00	30.456 
13:35	16.9	16.9	16.9	52	2.4	3	7	270	0.00	30.457 
13:40	17.0	17.0	17.0	52	2.4	2	5	315	0.00	30.459 
13:45	17.0	17.0	17.0	52	2.4	2	6	292	0.00	30.457 
13:50	17.0	17.0	17.0	53	2.9	2	6	338	0.00	30.462 
13:55	17.2	17.2	17.2	52	2.6	2	7	270	0.00	30.464 
14:00	17.2	17.2	17.2	51	2.2	2	6	338	0.00	30.464 
14:05	17.3	17.3	17.3	52	2.7	2	6	270	0.00	30.469 
14:10	17.3	17.3	17.3	51	2.3	3	10	270	0.00	30.471 
14:15	17.3	17.3	17.3	51	2.3	3	9	292	0.00	30.471 
14:20	17.2	17.2	17.2	51	2.2	2	6	315	0.00	30.470 
14:25	17.5	17.5	17.5	50	2.1	3	6	292	0.00	30.469 
14:30	17.3	17.3	17.3	50	1.9	3	7	315	0.00	30.471 
14:35	17.5	17.5	17.5	50	2.1	2	6	315	0.00	30.470 
14:40	17.7	17.7	17.7	50	2.3	3	7	270	0.00	30.469 
14:45	17.8	17.8	17.8	50	2.3	3	9	270	0.00	30.471 
14:50	18.0	11.9	18.0	48	1.7	4	9	270	0.00	30.469 
14:55	17.8	17.8	17.8	47	1.0	2	9	292	0.00	30.471 
15:00	17.8	17.8	17.8	48	1.5	2	11	338	0.00	30.472 
15:05	18.0	18.0	18.0	48	1.7	2	6	315	0.00	30.477 
15:10	18.1	18.1	18.1	47	1.3	2	5	270	0.00	30.475 
15:15	18.0	18.0	18.0	47	1.2	3	7	315	0.00	30.477 
15:20	17.8	17.8	17.8	47	1.0	2	4	0	0.00	30.479 
15:25	17.8	17.8	17.8	47	1.0	2	5	315	0.00	30.479 
15:30	17.8	17.8	17.8	47	1.0	2	7	338	0.00	30.482 
15:35	18.0	18.0	18.0	46	0.8	3	11	315	0.00	30.481 
15:40	17.8	17.8	17.8	46	0.6	3	7	315	0.00	30.484 
15:45	17.7	17.7	17.7	47	0.9	2	6	315	0.00	30.485 
15:50	17.8	17.8	17.8	46	0.6	2	6	315	0.00	30.485 
15:55	17.8	17.8	17.8	46	0.6	2	7	270	0.00	30.487 
16:00	17.8	17.8	17.8	47	1.0	3	6	270	0.00	30.486 
16:05	17.8	17.8	17.8	47	1.0	2	7	315	0.00	30.487 
16:10	17.8	17.8	17.8	46	0.6	3	9	315	0.00	30.488 
16:15	17.7	17.7	17.7	47	0.9	2	6	315	0.00	30.489 
16:20	17.3	17.3	17.3	47	0.6	2	7	292	0.00	30.490 
16:25	17.0	17.0	17.0	47	0.3	2	7	270	0.00	30.492 
16:30	16.7	16.7	16.7	48	0.5	1	5	315	0.00	30.494 
16:35	16.5	16.5	16.5	48	0.3	2	7	315	0.00	30.497 
16:40	16.5	16.5	16.5	48	0.3	2	6	292	0.00	30.501 
16:45	16.5	16.5	16.5	49	0.7	1	5	338	0.00	30.503 
16:50	16.7	16.7	16.7	49	0.9	1	5	338	0.00	30.503 
16:55	16.7	16.7	16.7	48	0.5	1	5	338	0.00	30.503 
17:00	17.0	17.0	17.0	49	1.2	1	4	338	0.00	30.504 
17:05	17.2	17.2	17.2	49	1.4	1	3	248	0.00	30.507 
17:10	17.3	17.3	17.3	48	1.0	1	3	315	0.00	30.508 
17:15	17.2	17.2	17.2	48	0.9	1	6	338	0.00	30.508 
17:20	17.3	17.3	17.3	48	1.0	1	3	338	0.00	30.511 
17:25	17.2	17.2	17.2	47	0.5	2	4	292	0.00	30.513 
17:30	17.0	17.0	17.0	48	0.7	2	6	270	0.00	30.516 
17:35	16.9	16.9	16.9	48	0.6	1	5	292	0.00	30.519 
17:40	16.9	16.9	16.9	49	1.1	1	5	270	0.00	30.521 
17:45	16.5	16.5	16.5	49	0.7	1	3	292	0.00	30.522 
17:50	16.2	16.2	16.2	50	0.9	1	3	315	0.00	30.523 
17:55	16.1	16.1	16.1	50	0.8	1	3	248	0.00	30.523 
18:00	15.9	15.9	15.9	51	1.0	0	3	248	0.00	30.524 
18:05	15.6	15.6	15.6	51	0.7	1	3	248	0.00	30.527 
18:10	15.2	15.2	15.2	52	0.8	0	1	315	0.00	30.529 
18:15	15.1	15.1	15.1	53	1.1	0	2	315	0.00	30.531 
18:20	14.9	14.9	14.9	53	0.9	0	2	315	0.00	30.532 
18:25	14.8	14.8	14.8	54	1.2	0	2	225	0.00	30.532 
18:30	14.6	14.6	14.6	54	1.0	0	2	225	0.00	30.532 
18:35	14.3	14.3	14.3	54	0.7	0	1	225	0.00	30.537 
18:40	14.1	14.1	14.1	55	0.9	0	1	225	0.00	30.536 
18:45	13.8	13.8	13.8	55	0.7	0	0	---	0.00	30.538 
18:50	13.5	13.5	13.5	56	0.8	0	0	---	0.00	30.539 
18:55	13.1	13.1	13.1	56	0.4	0	0	---	0.00	30.541 
19:00	12.6	12.6	12.6	57	0.3	0	0	---	0.00	30.542 
19:05	12.3	12.3	12.3	58	0.4	0	0	---	0.00	30.544 
19:10	11.9	11.9	11.9	59	0.4	0	0	---	0.00	30.544 
19:15	11.6	11.6	11.6	60	0.4	0	0	---	0.00	30.546 
19:20	11.2	11.2	11.2	61	0.4	0	0	---	0.00	30.549 
19:25	11.1	11.1	11.1	62	0.7	0	0	---	0.00	30.551 
19:30	10.7	10.7	10.7	62	0.3	0	0	---	0.00	30.555 
19:35	10.4	10.4	10.4	62	-0.0	0	0	---	0.00	30.555 
19:40	9.9	9.9	9.9	63	-0.1	0	0	---	0.00	30.556 
19:45	9.5	9.5	9.5	63	-0.5	0	0	---	0.00	30.558 
19:50	9.2	9.2	9.2	64	-0.5	0	0	---	0.00	30.560 
19:55	8.8	8.8	8.8	65	-0.5	0	0	---	0.00	30.562 
20:00	8.6	8.6	8.6	65	-0.7	0	0	---	0.00	30.564 
20:05	8.3	8.3	8.3	65	-1.0	0	0	---	0.00	30.563 
20:10	7.9	7.9	7.9	66	-1.1	0	0	---	0.00	30.564 
20:15	7.7	7.7	7.7	68	-0.6	0	0	---	0.00	30.565 
20:20	7.9	7.9	7.9	69	-0.1	0	0	---	0.00	30.565 
20:25	8.3	8.3	8.3	70	0.6	0	0	---	0.00	30.564 
20:30	8.4	8.4	8.4	70	0.7	0	0	---	0.00	30.564 
20:35	8.4	8.4	8.4	70	0.7	0	0	---	0.00	30.564 
20:40	8.6	8.6	8.6	70	0.9	0	0	---	0.00	30.565 
20:45	8.8	8.8	8.8	70	1.0	0	0	---	0.00	30.564 
20:50	8.8	8.8	8.8	71	1.4	0	0	---	0.00	30.565 
20:55	9.0	9.0	9.0	71	1.5	0	0	---	0.00	30.567 
21:00	9.3	9.3	9.3	70	1.5	0	0	---	0.00	30.566 
21:05	9.7	9.7	9.7	70	1.9	0	0	---	0.00	30.564 
21:10	10.0	10.0	10.0	70	2.2	0	0	---	0.00	30.563 
21:15	10.2	10.2	10.2	69	2.1	0	0	---	0.00	30.564 
21:20	10.5	10.5	10.5	68	2.1	0	0	---	0.00	30.562 
21:25	10.5	10.5	10.5	67	1.7	0	0	---	0.00	30.565 
21:30	10.5	10.5	10.5	67	1.7	0	0	---	0.00	30.560 
21:35	10.5	10.5	10.5	67	1.7	0	1	225	0.00	30.558 
21:40	10.4	10.4	10.4	67	1.6	0	0	---	0.00	30.558 
21:45	10.4	10.4	10.4	67	1.6	0	0	---	0.00	30.559 
21:50	10.4	10.4	10.4	67	1.6	0	0	---	0.00	30.560 
21:55	10.2	10.2	10.2	68	1.8	0	0	---	0.00	30.561 
22:00	10.2	10.2	10.2	68	1.8	0	0	---	0.00	30.563 
22:05	10.2	10.2	10.2	69	2.1	0	0	---	0.00	30.560 
22:10	10.4	10.4	10.4	69	2.3	0	0	---	0.00	30.566 
22:15	10.4	10.4	10.4	69	2.3	0	0	---	0.00	30.568 
22:20	10.4	10.4	10.4	69	2.3	0	0	---	0.00	30.565 
22:25	10.4	10.4	10.4	69	2.3	0	0	---	0.00	30.564 
22:30	10.4	10.4	10.4	69	2.3	0	0	---	0.00	30.558 
22:35	10.4	10.4	10.4	69	2.3	0	0	---	0.00	30.559 
22:40	10.4	10.4	10.4	69	2.3	0	0	---	0.00	30.563 
22:45	10.4	10.4	10.4	69	2.3	0	0	---	0.00	30.564 
22:50	10.4	10.4	10.4	69	2.3	0	0	---	0.00	30.566 
22:55	10.2	10.2	10.2	70	2.4	0	0	---	0.00	30.569 
23:00	10.2	10.2	10.2	70	2.4	0	0	---	0.00	30.568 
23:05	10.2	10.2	10.2	71	2.7	0	1	225	0.00	30.568 
23:10	10.2	10.2	10.2	70	2.4	0	0	---	0.00	30.568 
23:15	10.2	10.2	10.2	71	2.7	0	0	---	0.00	30.569 
23:20	10.2	10.2	10.2	71	2.7	0	0	---	0.00	30.570 
23:25	10.4	10.4	10.4	71	2.9	0	0	---	0.00	30.575 
23:30	10.5	10.5	10.5	70	2.7	0	1	225	0.00	30.572 
23:35	10.5	10.5	10.5	69	2.4	0	0	---	0.00	30.571 
23:40	10.4	10.4	10.4	69	2.3	0	0	---	0.00	30.575 
23:45	10.4	10.4	10.4	69	2.3	0	0	---	0.00	30.577 
23:50	10.2	10.2	10.2	69	2.1	0	0	---	0.00	30.576 
23:55	10.0	10.0	10.0	69	1.9	0	0	---	0.00	30.579 

CoCoRaHS
IN-AL-39
A2 Web Hosting
Creative Commons License
GoDaddy
search engine by freefind advanced

loaded 2018-11-22 05:45:47 • last modified 2010-11-18 10:43:29
Privacy PolicyDisclaimer
• wx.awcolley.com is powered by PmWiki v.2002016 •
• all content (unless otherwise noted) © 2018 A W Colley